Time;durP1;ratioP1;P1;durP2;ratioP2;P2;SDS_P1;SDS_P2;PMS_P1;PMS_P2;Temp;Humidity;BMP_temperature;BMP_pressure;BME280_temperature;BME280_humidity;BME280_pressure;Samples;Min_cycle;Max_cycle;Signal;HPM_P1;HPM_P2
2021/05/02 00:01:27;;;;;;;34.03;26.47;;;8.20;99.90;;;;;;6153884;23;20644;-62
2021/05/02 00:03:53;;;;;;;32.70;25.27;;;8.10;99.90;;;;;;6132628;23;20636;-62
2021/05/02 00:06:18;;;;;;;30.83;26.07;;;8.10;99.90;;;;;;6130983;23;20663;-61
2021/05/02 00:08:45;;;;;;;34.80;27.23;;;8.10;99.90;;;;;;6129675;22;20599;-62
2021/05/02 00:11:11;;;;;;;34.37;27.17;;;8.10;99.90;;;;;;6154601;23;20176;-61
2021/05/02 00:13:39;;;;;;;31.70;26.10;;;8.10;99.90;;;;;;6156723;23;20584;-62
2021/05/02 00:16:05;;;;;;;31.57;27.23;;;8.10;99.90;;;;;;6132170;23;20607;-62
2021/05/02 00:18:35;;;;;;;32.73;27.17;;;8.10;99.90;;;;;;6134998;22;20936;-61
2021/05/02 00:21:05;;;;;;;32.73;27.13;;;8.10;99.90;;;;;;6154451;23;20684;-61
2021/05/02 00:23:37;;;;;;;32.27;26.07;;;8.10;99.90;;;;;;6134752;23;20687;-62
2021/05/02 00:26:06;;;;;;;34.60;27.53;;;8.10;99.90;;;;;;6131200;23;20679;-64
2021/05/02 00:28:33;;;;;;;32.17;26.77;;;8.10;99.90;;;;;;6132466;22;20707;-61
2021/05/02 00:31:03;;;;;;;33.70;27.10;;;8.10;99.90;;;;;;6132066;23;20548;-62
2021/05/02 00:33:28;;;;;;;34.60;27.53;;;8.10;99.90;;;;;;6130487;23;20804;-60
2021/05/02 00:35:57;;;;;;;32.87;27.57;;;8.10;99.90;;;;;;6137295;23;20969;-63
2021/05/02 00:38:23;;;;;;;32.73;27.67;;;8.10;99.90;;;;;;6139537;22;20201;-61
2021/05/02 00:40:57;;;;;;;32.17;26.47;;;8.10;99.90;;;;;;6132687;23;21175;-62
2021/05/02 00:43:43;;;;;;;34.07;28.50;;;8.00;99.90;;;;;;6134663;23;20255;-61
2021/05/02 00:46:18;;;;;;;38.50;30.90;;;8.00;99.90;;;;;;6131580;23;20597;-62
2021/05/02 00:49:07;;;;;;;36.83;29.00;;;8.00;99.90;;;;;;6131660;22;20599;-62
2021/05/02 00:51:42;;;;;;;40.07;30.70;;;8.00;99.90;;;;;;6134859;23;20939;-62
2021/05/02 00:54:15;;;;;;;39.57;30.07;;;8.00;99.90;;;;;;6131019;23;20659;-62
2021/05/02 00:56:58;;;;;;;39.27;30.23;;;8.00;99.90;;;;;;6137860;23;20584;-62
2021/05/02 00:59:35;;;;;;;39.03;30.30;;;8.00;99.90;;;;;;6154607;23;20625;-62
2021/05/02 01:02:03;;;;;;;38.80;29.93;;;8.00;99.90;;;;;;6130120;23;21123;-62
2021/05/02 01:04:31;;;;;;;38.47;29.10;;;8.00;99.90;;;;;;6134801;23;20770;-61
2021/05/02 01:07:02;;;;;;;34.07;28.00;;;7.90;99.90;;;;;;6133325;22;20970;-62
2021/05/02 01:09:29;;;;;;;34.10;27.43;;;7.90;99.90;;;;;;6134341;23;20891;-62
2021/05/02 01:12:00;;;;;;;38.47;30.07;;;8.00;99.90;;;;;;6132991;23;20526;-62
2021/05/02 01:14:31;;;;;;;35.93;29.00;;;7.90;99.90;;;;;;6133215;23;20577;-62
2021/05/02 01:16:58;;;;;;;37.47;29.37;;;8.00;99.90;;;;;;6134383;22;20595;-60
2021/05/02 01:19:26;;;;;;;36.27;29.47;;;8.00;99.90;;;;;;6149376;23;20610;-60
2021/05/02 01:21:56;;;;;;;34.87;28.60;;;8.00;99.90;;;;;;6160617;23;20597;-62
2021/05/02 01:24:23;;;;;;;35.17;27.47;;;8.00;99.90;;;;;;6133092;23;20572;-61
2021/05/02 01:26:48;;;;;;;35.23;29.07;;;7.90;99.90;;;;;;6133818;23;20895;-60
2021/05/02 01:29:15;;;;;;;36.93;28.67;;;7.90;99.90;;;;;;6136302;22;20589;-62
2021/05/02 01:31:43;;;;;;;38.00;31.50;;;8.00;99.90;;;;;;6158547;23;20158;-63
2021/05/02 01:34:12;;;;;;;35.97;28.53;;;7.90;99.90;;;;;;6137645;23;20541;-62
2021/05/02 01:36:38;;;;;;;38.70;28.77;;;7.90;99.90;;;;;;6135904;23;20581;-63
2021/05/02 01:39:06;;;;;;;37.70;27.27;;;7.90;99.90;;;;;;6136016;22;20968;-62
2021/05/02 01:41:32;;;;;;;35.67;29.20;;;7.90;99.90;;;;;;6131714;23;20213;-61
2021/05/02 01:43:57;;;;;;;32.50;27.30;;;7.90;99.90;;;;;;6134427;23;20537;-62
2021/05/02 01:46:36;;;;;;;33.80;26.53;;;7.90;99.90;;;;;;6138580;23;20220;-61
2021/05/02 01:49:02;;;;;;;32.60;26.33;;;7.90;99.90;;;;;;6133017;22;20387;-60
2021/05/02 01:51:34;;;;;;;37.03;28.27;;;7.80;99.90;;;;;;6135158;23;21108;-64
2021/05/02 01:54:01;;;;;;;32.43;26.87;;;7.90;99.90;;;;;;6134837;23;20645;-62
2021/05/02 01:56:30;;;;;;;33.20;27.43;;;7.90;99.90;;;;;;6132204;23;20751;-62
2021/05/02 01:58:56;;;;;;;32.60;27.63;;;7.90;99.90;;;;;;6134490;22;20735;-62
2021/05/02 02:01:23;;;;;;;32.70;26.53;;;7.90;99.90;;;;;;6132228;23;20576;-63
2021/05/02 02:03:52;;;;;;;37.93;29.40;;;7.90;99.90;;;;;;6133910;23;20600;-63
2021/05/02 02:06:18;;;;;;;36.53;28.83;;;7.90;99.90;;;;;;6133330;23;20608;-62
2021/05/02 02:08:44;;;;;;;33.70;28.13;;;8.00;99.90;;;;;;6156036;22;20609;-62
2021/05/02 02:11:10;;;;;;;38.37;29.33;;;7.90;99.90;;;;;;6132417;23;20640;-62
2021/05/02 02:13:36;;;;;;;35.67;29.30;;;7.90;99.90;;;;;;6131229;23;20185;-61
2021/05/02 02:16:06;;;;;;;38.20;30.20;;;7.90;99.90;;;;;;6136818;23;21154;-61
2021/05/02 02:18:33;;;;;;;35.93;29.03;;;7.90;99.90;;;;;;6135121;22;20703;-62
2021/05/02 02:21:00;;;;;;;37.70;29.00;;;7.90;99.90;;;;;;6135690;23;20628;-61
2021/05/02 02:23:30;;;;;;;36.60;29.70;;;7.90;99.90;;;;;;6132975;23;20533;-62
2021/05/02 02:26:03;;;;;;;36.07;29.47;;;7.90;99.90;;;;;;6135426;23;21074;-61
2021/05/02 02:28:33;;;;;;;37.60;29.33;;;7.90;99.90;;;;;;6144797;23;20576;-62
2021/05/02 02:30:58;;;;;;;39.50;29.63;;;8.00;99.90;;;;;;6141065;23;20557;-60
2021/05/02 02:33:29;;;;;;;36.80;28.07;;;7.90;99.90;;;;;;6136516;23;20573;-63
2021/05/02 02:35:56;;;;;;;40.97;29.77;;;7.90;99.90;;;;;;6131642;23;20561;-62
2021/05/02 02:38:26;;;;;;;37.90;29.70;;;7.90;99.90;;;;;;6136057;22;20597;-61
2021/05/02 02:40:54;;;;;;;37.50;28.13;;;7.90;99.90;;;;;;6132011;23;20835;-63
2021/05/02 02:43:29;;;;;;;37.23;29.00;;;7.90;99.90;;;;;;6134080;23;20544;-62
2021/05/02 02:45:56;;;;;;;37.20;30.77;;;7.90;99.90;;;;;;6132457;23;20963;-62
2021/05/02 02:48:28;;;;;;;35.97;29.13;;;7.90;99.90;;;;;;6135266;22;20674;-62
2021/05/02 02:50:59;;;;;;;41.97;31.30;;;7.90;99.90;;;;;;6133483;23;20917;-62
2021/05/02 02:53:32;;;;;;;40.43;29.83;;;7.90;99.90;;;;;;6133439;23;20546;-63
2021/05/02 02:56:05;;;;;;;37.00;28.50;;;7.90;99.90;;;;;;6136315;23;20596;-63
2021/05/02 02:58:39;;;;;;;38.60;29.83;;;7.90;99.90;;;;;;6132683;23;20600;-63
2021/05/02 03:01:05;;;;;;;37.40;30.00;;;7.90;99.90;;;;;;6130374;23;20553;-61
2021/05/02 03:03:37;;;;;;;36.37;29.10;;;7.90;99.90;;;;;;6157922;23;20545;-63
2021/05/02 03:06:03;;;;;;;36.83;29.10;;;7.90;99.90;;;;;;6136506;23;20772;-63
2021/05/02 03:08:30;;;;;;;39.40;29.37;;;7.90;99.90;;;;;;6133231;22;20654;-63
2021/05/02 03:10:56;;;;;;;34.40;28.37;;;7.80;99.90;;;;;;6142763;23;20683;-61
2021/05/02 03:13:25;;;;;;;35.97;29.47;;;7.80;99.90;;;;;;6150408;23;20576;-64
2021/05/02 03:15:55;;;;;;;38.47;30.47;;;7.80;99.90;;;;;;6150254;23;20589;-61
2021/05/02 03:18:30;;;;;;;36.23;29.10;;;7.80;99.90;;;;;;6150004;22;20597;-61
2021/05/02 03:21:03;;;;;;;37.67;28.73;;;7.80;99.90;;;;;;6151787;23;20741;-61
2021/05/02 03:23:30;;;;;;;35.40;29.43;;;7.80;99.90;;;;;;6150397;23;20532;-61
2021/05/02 03:26:00;;;;;;;38.40;30.17;;;7.80;99.90;;;;;;6142075;23;20585;-62
2021/05/02 03:28:37;;;;;;;36.67;28.93;;;7.80;99.90;;;;;;6133170;23;20725;-62
2021/05/02 03:31:06;;;;;;;36.47;28.87;;;7.80;99.90;;;;;;6132537;23;20573;-61
2021/05/02 03:33:36;;;;;;;43.50;30.47;;;7.80;99.90;;;;;;6133875;23;20641;-63
2021/05/02 03:36:10;;;;;;;36.30;29.03;;;7.80;99.90;;;;;;6135681;23;20633;-63
2021/05/02 03:38:56;;;;;;;36.67;29.57;;;7.80;99.90;;;;;;6130644;22;20597;-63
2021/05/02 03:41:22;;;;;;;33.63;27.80;;;7.90;99.90;;;;;;6132271;23;20621;-62
2021/05/02 03:43:49;;;;;;;38.03;29.73;;;7.80;99.90;;;;;;6130635;23;20541;-63
2021/05/02 03:46:24;;;;;;;36.00;28.67;;;7.80;99.90;;;;;;6128768;23;20222;-62
2021/05/02 03:49:15;;;;;;;36.17;28.67;;;7.90;99.90;;;;;;6133511;22;20620;-61
2021/05/02 03:51:41;;;;;;;34.07;27.60;;;7.70;99.90;;;;;;6129998;23;20961;-62
2021/05/02 03:54:07;;;;;;;36.60;28.50;;;7.80;99.90;;;;;;6126834;23;20572;-60
2021/05/02 03:56:43;;;;;;;37.60;29.87;;;7.70;99.90;;;;;;6143526;23;20576;-62
2021/05/02 03:59:15;;;;;;;37.63;28.43;;;7.70;99.90;;;;;;6135020;23;20588;-61
2021/05/02 04:02:02;;;;;;;39.43;30.80;;;7.80;99.90;;;;;;6135630;23;21127;-62
2021/05/02 04:04:30;;;;;;;35.03;28.03;;;7.70;99.90;;;;;;6139013;23;20572;-60
2021/05/02 04:07:00;;;;;;;35.30;28.50;;;7.70;99.90;;;;;;6137960;22;20768;-61
2021/05/02 04:09:26;;;;;;;38.40;29.40;;;7.70;99.90;;;;;;6136466;23;20862;-62
2021/05/02 04:11:52;;;;;;;38.20;29.97;;;7.70;99.90;;;;;;6137961;23;20540;-62
2021/05/02 04:14:17;;;;;;;48.23;32.03;;;7.70;99.90;;;;;;6138601;23;20614;-62
2021/05/02 04:16:44;;;;;;;46.40;31.27;;;7.80;99.90;;;;;;6137122;23;20585;-62
2021/05/02 04:19:11;;;;;;;42.17;31.50;;;7.70;99.90;;;;;;6134558;22;20205;-61
2021/05/02 04:21:40;;;;;;;47.60;33.87;;;7.70;99.90;;;;;;6137015;23;20675;-61
2021/05/02 04:24:06;;;;;;;42.23;31.40;;;7.80;99.90;;;;;;6150357;23;20533;-60
2021/05/02 04:26:32;;;;;;;44.27;32.60;;;7.80;99.90;;;;;;6141995;23;20609;-62
2021/05/02 04:28:58;;;;;;;44.20;33.57;;;7.80;99.90;;;;;;6140591;23;20597;-62
2021/05/02 04:31:23;;;;;;;42.90;32.47;;;7.80;99.90;;;;;;6139052;23;20546;-62
2021/05/02 04:33:51;;;;;;;42.47;31.37;;;7.70;99.90;;;;;;6136815;23;20162;-62
2021/05/02 04:36:17;;;;;;;44.60;31.33;;;7.80;99.90;;;;;;6137447;23;20178;-62
2021/05/02 04:38:45;;;;;;;42.17;31.93;;;7.80;99.90;;;;;;6136050;22;20650;-62
2021/05/02 04:41:11;;;;;;;46.17;30.93;;;7.80;99.90;;;;;;6136579;23;20503;-62
2021/05/02 04:43:39;;;;;;;42.37;31.20;;;7.80;99.90;;;;;;6137578;23;20549;-62
2021/05/02 04:46:04;;;;;;;44.27;32.20;;;7.80;99.90;;;;;;6135243;23;20359;-62
2021/05/02 04:48:32;;;;;;;43.60;31.00;;;7.80;99.90;;;;;;6136697;23;20593;-62
2021/05/02 04:50:58;;;;;;;45.10;31.20;;;7.80;99.90;;;;;;6134021;23;20215;-62
2021/05/02 04:53:23;;;;;;;46.73;32.53;;;7.80;99.90;;;;;;6136833;23;20573;-62
2021/05/02 04:55:49;;;;;;;43.23;31.10;;;7.80;99.90;;;;;;6135735;23;20589;-61
2021/05/02 04:58:15;;;;;;;45.13;31.97;;;7.80;99.90;;;;;;6136237;22;20228;-62
2021/05/02 05:00:40;;;;;;;46.37;33.10;;;7.80;99.90;;;;;;6136725;23;20188;-62
2021/05/02 05:03:06;;;;;;;45.43;33.10;;;7.80;99.90;;;;;;6135796;23;20545;-62
2021/05/02 05:05:32;;;;;;;45.73;32.50;;;7.80;99.90;;;;;;6134340;23;20189;-62
2021/05/02 05:07:58;;;;;;;47.67;33.23;;;7.80;99.90;;;;;;6134005;22;20924;-62
2021/05/02 05:10:23;;;;;;;48.93;33.87;;;7.80;99.90;;;;;;6134369;23;20203;-61
2021/05/02 05:12:49;;;;;;;43.70;32.20;;;7.90;99.90;;;;;;6134763;23;20676;-62
2021/05/02 05:15:15;;;;;;;48.90;34.07;;;7.90;99.90;;;;;;6134556;23;20708;-61
2021/05/02 05:17:45;;;;;;;47.70;33.90;;;7.90;99.90;;;;;;6132855;23;20600;-60
2021/05/02 05:20:11;;;;;;;48.73;33.60;;;7.90;99.90;;;;;;6136423;23;20182;-62
2021/05/02 05:22:39;;;;;;;47.17;33.77;;;7.90;99.90;;;;;;6134106;23;20955;-62
2021/05/02 05:25:05;;;;;;;47.70;33.90;;;7.80;99.90;;;;;;6133338;23;20648;-62
2021/05/02 05:27:31;;;;;;;45.07;33.80;;;7.80;99.90;;;;;;6137835;22;20589;-62
2021/05/02 05:29:56;;;;;;;44.13;32.23;;;7.90;99.90;;;;;;6156363;23;20570;-61
2021/05/02 05:32:23;;;;;;;47.10;33.63;;;7.80;99.90;;;;;;6132780;23;20194;-62
2021/05/02 05:34:48;;;;;;;45.77;32.43;;;7.90;99.90;;;;;;6139714;23;20181;-62
2021/05/02 05:37:14;;;;;;;46.57;33.33;;;7.90;99.90;;;;;;6156566;22;20593;-62
2021/05/02 05:39:40;;;;;;;45.67;34.10;;;7.90;99.90;;;;;;6136168;23;20185;-60
2021/05/02 05:42:08;;;;;;;45.33;32.50;;;7.90;99.90;;;;;;6135497;23;20150;-62
2021/05/02 05:44:36;;;;;;;47.93;34.07;;;8.00;99.90;;;;;;6131143;23;20574;-62
2021/05/02 05:47:02;;;;;;;42.70;32.33;;;8.00;99.90;;;;;;6141427;22;20589;-60
2021/05/02 05:49:27;;;;;;;44.77;32.83;;;8.00;99.90;;;;;;6130620;23;20549;-62
2021/05/02 05:51:53;;;;;;;43.33;32.97;;;8.00;99.90;;;;;;6132858;23;20164;-62
2021/05/02 05:54:22;;;;;;;44.20;31.67;;;8.00;99.90;;;;;;6132038;23;20162;-62
2021/05/02 05:56:50;;;;;;;41.77;30.87;;;8.00;99.90;;;;;;6125965;23;20182;-61
2021/05/02 05:59:16;;;;;;;38.27;29.33;;;8.10;99.90;;;;;;6133994;22;20585;-62
2021/05/02 06:01:42;;;;;;;39.00;30.27;;;8.00;99.90;;;;;;6135483;23;20544;-62
2021/05/02 06:04:08;;;;;;;42.20;30.20;;;8.20;99.90;;;;;;6136795;23;20883;-63
2021/05/02 06:06:35;;;;;;;34.73;28.40;;;8.10;99.90;;;;;;6145061;23;20185;-61
2021/05/02 06:09:02;;;;;;;38.40;28.57;;;8.20;99.90;;;;;;6139637;23;20213;-60
2021/05/02 06:11:31;;;;;;;36.60;27.87;;;8.20;99.90;;;;;;6130460;23;20841;-62
2021/05/02 06:13:58;;;;;;;34.00;27.33;;;8.20;99.90;;;;;;6139733;23;20533;-62
2021/05/02 06:16:26;;;;;;;30.83;25.33;;;8.20;99.90;;;;;;6133655;23;20592;-63
2021/05/02 06:18:55;;;;;;;32.97;27.10;;;8.20;99.90;;;;;;6137339;22;20607;-63
2021/05/02 06:21:27;;;;;;;32.63;25.30;;;8.30;99.90;;;;;;6135283;23;21177;-62
2021/05/02 06:23:54;;;;;;;32.70;25.03;;;8.30;99.90;;;;;;6134307;23;20569;-61
2021/05/02 06:26:23;;;;;;;31.17;24.67;;;8.40;99.90;;;;;;6137544;23;20699;-62
2021/05/02 06:28:50;;;;;;;29.97;24.23;;;8.50;99.90;;;;;;6131114;22;20592;-61
2021/05/02 06:31:19;;;;;;;31.07;23.90;;;8.50;99.90;;;;;;6136246;23;21012;-67
2021/05/02 06:33:45;;;;;;;31.23;23.50;;;8.60;99.90;;;;;;6137335;23;21154;-65
2021/05/02 06:36:11;;;;;;;30.47;24.97;;;8.60;99.90;;;;;;6157717;23;21137;-65
2021/05/02 06:38:37;;;;;;;28.63;22.90;;;8.60;99.90;;;;;;6135022;22;20612;-65
2021/05/02 06:41:06;;;;;;;28.77;22.17;;;8.70;99.90;;;;;;6136574;23;20178;-65
2021/05/02 06:43:32;;;;;;;25.77;21.90;;;8.80;99.90;;;;;;6138946;23;20197;-70
2021/05/02 06:45:58;;;;;;;28.63;22.37;;;8.90;99.90;;;;;;6132854;23;21153;-71
2021/05/02 06:48:24;;;;;;;26.93;21.83;;;8.90;99.90;;;;;;6137042;22;20664;-70
2021/05/02 06:50:50;;;;;;;27.53;22.20;;;8.90;99.90;;;;;;6128423;23;20621;-69
2021/05/02 06:53:16;;;;;;;26.63;22.57;;;8.90;99.90;;;;;;6136606;23;20912;-69
2021/05/02 06:55:44;;;;;;;24.57;21.17;;;8.90;99.90;;;;;;6139398;23;20580;-70
2021/05/02 06:58:13;;;;;;;24.40;20.30;;;9.00;99.90;;;;;;6139561;23;20255;-72
2021/05/02 07:00:38;;;;;;;23.30;19.23;;;9.10;99.90;;;;;;6163353;23;20603;-66
2021/05/02 07:03:07;;;;;;;24.47;18.83;;;9.10;99.90;;;;;;6130073;23;20896;-66
2021/05/02 07:05:35;;;;;;;22.23;18.67;;;9.10;99.90;;;;;;6130070;23;20647;-71
2021/05/02 07:08:01;;;;;;;22.03;19.10;;;9.20;99.90;;;;;;6133708;22;20648;-65
2021/05/02 07:10:27;;;;;;;23.00;18.83;;;9.20;99.90;;;;;;6135354;23;20909;-66
2021/05/02 07:12:53;;;;;;;19.37;17.30;;;9.30;99.90;;;;;;6132641;23;20252;-65
2021/05/02 07:15:22;;;;;;;19.80;17.70;;;9.40;99.90;;;;;;6132659;23;21044;-66
2021/05/02 07:17:48;;;;;;;21.33;18.57;;;9.40;99.90;;;;;;6132679;22;20248;-67
2021/05/02 07:20:15;;;;;;;21.13;18.20;;;9.50;99.90;;;;;;6137896;23;20581;-65
2021/05/02 07:22:51;;;;;;;20.63;17.43;;;9.50;99.90;;;;;;6143942;23;20553;-65
2021/05/02 07:25:22;;;;;;;19.90;17.83;;;9.60;99.90;;;;;;6143647;23;20567;-64
2021/05/02 07:27:51;;;;;;;20.57;17.07;;;9.70;99.90;;;;;;6143100;22;20585;-65
2021/05/02 07:30:19;;;;;;;19.93;17.83;;;9.80;99.90;;;;;;6137163;23;21254;-65
2021/05/02 07:32:47;;;;;;;16.73;15.03;;;9.90;99.90;;;;;;6139705;23;20881;-62
2021/05/02 07:35:13;;;;;;;18.53;16.10;;;9.90;99.90;;;;;;6137858;23;20626;-62
2021/05/02 07:37:39;;;;;;;19.60;17.60;;;10.10;99.90;;;;;;6134128;23;20630;-65
2021/05/02 07:40:07;;;;;;;18.03;16.13;;;10.20;99.90;;;;;;6138921;23;20911;-65
2021/05/02 07:42:32;;;;;;;19.37;16.53;;;10.30;99.90;;;;;;6137619;23;20537;-65
2021/05/02 07:44:58;;;;;;;18.47;16.50;;;10.30;99.90;;;;;;6136245;23;21204;-64
2021/05/02 07:47:24;;;;;;;17.70;15.90;;;10.30;99.90;;;;;;6136707;22;20663;-65
2021/05/02 07:49:52;;;;;;;17.93;16.10;;;10.40;99.90;;;;;;6132563;23;20188;-66
2021/05/02 07:52:18;;;;;;;17.37;15.60;;;10.40;99.90;;;;;;6138373;23;20508;-65
2021/05/02 07:54:44;;;;;;;17.07;15.20;;;10.50;99.90;;;;;;6140356;23;20534;-65
2021/05/02 07:57:09;;;;;;;15.33;13.73;;;10.50;99.90;;;;;;6131979;22;20174;-65
2021/05/02 07:59:38;;;;;;;16.13;14.43;;;10.50;99.90;;;;;;6139880;23;20593;-65
2021/05/02 08:02:04;;;;;;;16.00;14.40;;;10.70;99.90;;;;;;6131353;23;20161;-65
2021/05/02 08:04:30;;;;;;;16.00;14.50;;;10.70;99.90;;;;;;6140781;23;20610;-65
2021/05/02 08:06:56;;;;;;;14.97;13.47;;;10.80;99.90;;;;;;6130361;22;20569;-65
2021/05/02 08:09:21;;;;;;;14.73;13.23;;;10.80;99.90;;;;;;6137015;23;20161;-65
2021/05/02 08:11:47;;;;;;;14.30;12.87;;;10.90;99.90;;;;;;6136036;23;20162;-65
2021/05/02 08:14:17;;;;;;;15.83;14.17;;;10.90;99.90;;;;;;6130219;23;20173;-65
2021/05/02 08:16:42;;;;;;;15.73;14.13;;;11.00;99.90;;;;;;6138997;23;20171;-65
2021/05/02 08:19:08;;;;;;;15.10;13.70;;;11.00;99.90;;;;;;6138329;23;20581;-65
2021/05/02 08:21:34;;;;;;;14.83;13.33;;;11.00;99.90;;;;;;6141489;23;20193;-65
2021/05/02 08:23:59;;;;;;;13.77;12.47;;;11.00;99.90;;;;;;6143313;23;20607;-64
2021/05/02 08:26:25;;;;;;;15.10;13.50;;;11.10;99.90;;;;;;6142178;23;20266;-65
2021/05/02 08:28:53;;;;;;;15.70;14.10;;;11.20;99.90;;;;;;6139879;22;20194;-65
2021/05/02 08:31:18;;;;;;;14.83;13.33;;;11.20;99.90;;;;;;6144219;23;20207;-65
2021/05/02 08:33:44;;;;;;;15.63;13.97;;;11.20;99.90;;;;;;6167407;23;20580;-64
2021/05/02 08:36:12;;;;;;;14.53;12.80;;;11.30;99.90;;;;;;6138038;23;20177;-65
2021/05/02 08:38:37;;;;;;;15.10;13.60;;;11.30;99.90;;;;;;6136527;22;20209;-65
2021/05/02 08:41:05;;;;;;;14.13;12.57;;;11.30;99.90;;;;;;6138911;23;20583;-66
2021/05/02 08:43:31;;;;;;;13.07;11.77;;;11.40;99.90;;;;;;6143141;23;20149;-65
2021/05/02 08:45:57;;;;;;;12.43;11.33;;;11.40;99.90;;;;;;6140797;23;20627;-65
2021/05/02 08:48:24;;;;;;;12.13;11.00;;;11.40;99.90;;;;;;6143090;22;20589;-65
2021/05/02 08:50:50;;;;;;;12.20;11.10;;;11.40;99.90;;;;;;6142637;23;20557;-64
2021/05/02 08:53:17;;;;;;;12.60;11.27;;;11.50;99.90;;;;;;6143829;23;20588;-65
2021/05/02 08:55:43;;;;;;;11.83;10.73;;;11.60;99.90;;;;;;6144355;23;20654;-65
2021/05/02 08:58:22;;;;;;;12.03;10.93;;;11.60;99.90;;;;;;6140729;22;20638;-65
2021/05/02 09:00:50;;;;;;;12.37;11.27;;;11.60;99.90;;;;;;6140970;23;20615;-64
2021/05/02 09:03:16;;;;;;;11.80;10.70;;;11.60;99.90;;;;;;6138883;23;20569;-65
2021/05/02 09:05:49;;;;;;;12.13;11.03;;;11.60;99.90;;;;;;6132743;23;20577;-65
2021/05/02 09:08:36;;;;;;;11.90;10.70;;;11.70;99.90;;;;;;6152250;22;20697;-65
2021/05/02 09:11:05;;;;;;;11.50;10.40;;;11.70;99.90;;;;;;6130492;23;20963;-66
2021/05/02 09:13:33;;;;;;;11.57;10.47;;;11.80;99.90;;;;;;6134675;23;20581;-66
2021/05/02 09:16:06;;;;;;;10.87;9.87;;;11.90;99.90;;;;;;6132001;23;20577;-65
2021/05/02 09:18:41;;;;;;;10.90;9.90;;;12.10;99.90;;;;;;6132674;22;20589;-64
2021/05/02 09:21:23;;;;;;;11.50;10.50;;;12.10;99.90;;;;;;6134784;23;20622;-66
2021/05/02 09:23:50;;;;;;;11.63;10.53;;;12.10;99.90;;;;;;6132529;23;20588;-65
2021/05/02 09:26:35;;;;;;;11.17;10.17;;;12.10;99.90;;;;;;6156187;23;20641;-65
2021/05/02 09:29:05;;;;;;;10.00;9.10;;;12.10;99.90;;;;;;6162847;22;20680;-63
2021/05/02 09:31:33;;;;;;;10.00;9.17;;;12.20;99.90;;;;;;6139542;23;20618;-63
2021/05/02 09:34:19;;;;;;;10.00;9.10;;;12.20;99.90;;;;;;6147770;23;20562;-63
2021/05/02 09:36:57;;;;;;;11.30;10.20;;;12.30;99.90;;;;;;6144730;23;20605;-63
2021/05/02 09:39:53;;;;;;;11.17;10.07;;;12.30;99.90;;;;;;6158834;23;21146;-62
2021/05/02 09:42:23;;;;;;;12.23;9.77;;;12.30;99.90;;;;;;6169421;23;20645;-62
2021/05/02 09:44:50;;;;;;;10.80;9.80;;;12.30;99.90;;;;;;6142986;23;20513;-63
2021/05/02 09:47:36;;;;;;;9.73;8.83;;;12.20;99.90;;;;;;6146922;22;20652;-63
2021/05/02 09:50:19;;;;;;;9.67;8.80;;;12.20;99.90;;;;;;6142560;23;20578;-63
2021/05/02 09:53:02;;;;;;;9.17;8.37;;;12.20;99.90;;;;;;6146557;22;20535;-63
2021/05/02 09:55:43;;;;;;;9.93;9.03;;;12.20;99.90;;;;;;6145285;22;20581;-63
2021/05/02 09:58:21;;;;;;;9.77;8.87;;;12.30;99.90;;;;;;6145928;22;20699;-62
2021/05/02 10:00:50;;;;;;;9.33;8.43;;;12.30;99.90;;;;;;6146219;23;20912;-63
2021/05/02 10:03:17;;;;;;;8.77;7.97;;;12.40;99.90;;;;;;6166237;23;20537;-60
2021/05/02 10:06:02;;;;;;;8.13;7.00;;;12.30;99.90;;;;;;6187287;23;20607;-65
2021/05/02 10:08:32;;;;;;;9.00;8.20;;;12.30;99.90;;;;;;6170067;22;20671;-62
2021/05/02 10:11:04;;;;;;;7.97;7.27;;;12.30;99.90;;;;;;6174482;23;20500;-62
2021/05/02 10:13:29;;;;;;;9.33;8.47;;;12.40;99.90;;;;;;6174674;23;20524;-62
2021/05/02 10:15:57;;;;;;;7.60;7.00;;;12.40;99.90;;;;;;6187346;23;20598;-62
2021/05/02 10:18:23;;;;;;;8.00;7.30;;;12.40;99.90;;;;;;6202351;23;20200;-62
2021/05/02 10:20:50;;;;;;;9.47;8.47;;;12.40;99.90;;;;;;6202499;23;21134;-61
2021/05/02 10:23:16;;;;;;;9.30;8.50;;;12.50;99.90;;;;;;6204171;23;20527;-62
2021/05/02 10:25:43;;;;;;;7.90;7.20;;;12.70;99.90;;;;;;6184061;23;20591;-62
2021/05/02 10:28:21;;;;;;;7.50;6.80;;;12.60;99.90;;;;;;6201951;23;20601;-61
2021/05/02 10:30:49;;;;;;;8.20;7.40;;;12.70;99.90;;;;;;6204554;23;20645;-66
2021/05/02 10:33:28;;;;;;;7.90;7.30;;;12.80;99.90;;;;;;6176475;23;20591;-62
2021/05/02 10:36:11;;;;;;;7.73;7.03;;;13.00;99.90;;;;;;6202224;23;20664;-62
2021/05/02 10:38:57;;;;;;;6.80;6.30;;;13.10;99.90;;;;;;6203686;23;20586;-62
2021/05/02 10:41:33;;;;;;;6.97;6.37;;;13.40;99.90;;;;;;6202440;23;20582;-62
2021/05/02 10:44:07;;;;;;;6.33;5.73;;;13.40;99.90;;;;;;6205498;23;20559;-62
2021/05/02 10:46:41;;;;;;;7.97;7.17;;;13.40;99.90;;;;;;6210653;23;20605;-65
2021/05/02 10:49:08;;;;;;;6.60;6.10;;;13.40;99.90;;;;;;6217700;22;20658;-64
2021/05/02 10:51:34;;;;;;;7.37;6.83;;;13.40;99.90;;;;;;6189332;23;20582;-63
2021/05/02 10:54:13;;;;;;;7.33;6.73;;;13.30;99.90;;;;;;6210293;22;20532;-63
2021/05/02 10:57:02;;;;;;;7.20;6.70;;;13.30;99.90;;;;;;6216301;23;20175;-63
2021/05/02 11:00:01;;;;;;;7.33;6.73;;;13.30;99.90;;;;;;6215697;23;20587;-63
2021/05/02 11:02:45;;;;;;;6.83;6.23;;;13.20;99.90;;;;;;6211218;23;20581;-63
2021/05/02 11:05:13;;;;;;;6.90;6.30;;;13.10;99.90;;;;;;6201477;23;20590;-62
2021/05/02 11:07:44;;;;;;;6.40;5.90;;;13.10;99.90;;;;;;6201863;23;20686;-62
2021/05/02 11:10:14;;;;;;;6.47;5.97;;;13.10;99.90;;;;;;6154056;23;20671;-63
2021/05/02 11:12:46;;;;;;;6.73;5.97;;;13.20;99.90;;;;;;6204481;23;20965;-63
2021/05/02 11:15:39;;;;;;;6.60;6.00;;;13.10;99.90;;;;;;6201288;22;21119;-63
2021/05/02 11:18:23;;;;;;;7.00;6.40;;;12.90;99.90;;;;;;6173146;23;20636;-64
2021/05/02 11:20:51;;;;;;;6.20;5.77;;;12.90;99.90;;;;;;6203794;23;20583;-63
2021/05/02 11:23:18;;;;;;;6.27;5.77;;;12.90;99.90;;;;;;6204722;23;20532;-63
2021/05/02 11:25:55;;;;;;;6.20;5.60;;;12.80;99.90;;;;;;6205366;23;20570;-63
2021/05/02 11:28:41;;;;;;;6.27;5.77;;;12.80;99.90;;;;;;6198401;22;20582;-63
2021/05/02 11:31:06;;;;;;;5.53;5.03;;;12.80;99.90;;;;;;6204595;22;21058;-63
2021/05/02 11:33:37;;;;;;;5.47;5.03;;;13.00;99.90;;;;;;6204760;22;20543;-63
2021/05/02 11:36:07;;;;;;;6.37;5.77;;;13.10;99.90;;;;;;6203956;22;20496;-63
2021/05/02 11:38:44;;;;;;;5.87;5.37;;;13.20;99.90;;;;;;6179121;23;20591;-62
2021/05/02 11:41:10;;;;;;;5.90;5.40;;;13.20;99.90;;;;;;6205330;22;20625;-63
2021/05/02 11:43:38;;;;;;;4.93;4.63;;;13.00;99.90;;;;;;6200964;23;20624;-64
2021/05/02 11:46:19;;;;;;;6.47;5.80;;;13.00;99.90;;;;;;6178269;23;20587;-63
2021/05/02 11:48:50;;;;;;;7.03;5.80;;;13.00;99.90;;;;;;6204297;23;20630;-62
2021/05/02 11:51:25;;;;;;;6.40;5.90;;;13.20;99.90;;;;;;6177572;22;20556;-64
2021/05/02 11:53:53;;;;;;;7.13;6.53;;;13.20;99.90;;;;;;6203961;23;21218;-63
2021/05/02 11:56:32;;;;;;;6.23;5.73;;;13.20;99.90;;;;;;6202164;23;20958;-63
2021/05/02 11:59:07;;;;;;;7.77;7.07;;;13.20;99.90;;;;;;6176853;23;21181;-63
2021/05/02 12:01:42;;;;;;;7.33;6.83;;;13.40;99.90;;;;;;6201989;23;20555;-62
2021/05/02 12:04:09;;;;;;;8.07;7.37;;;13.50;99.90;;;;;;6198214;23;20605;-63
2021/05/02 12:06:37;;;;;;;8.27;7.57;;;13.60;99.90;;;;;;6199017;23;20619;-62
2021/05/02 12:09:10;;;;;;;7.50;6.80;;;13.70;99.90;;;;;;6200046;23;20698;-64
2021/05/02 12:11:38;;;;;;;7.40;6.80;;;13.70;99.90;;;;;;6204628;22;20903;-63
2021/05/02 12:14:06;;;;;;;6.40;5.90;;;13.80;99.90;;;;;;6203392;23;20531;-60
2021/05/02 12:16:32;;;;;;;5.90;5.40;;;13.90;99.90;;;;;;6173801;22;20933;-64
2021/05/02 12:19:02;;;;;;;5.57;5.17;;;14.00;99.90;;;;;;6173384;22;20587;-62
2021/05/02 12:21:46;;;;;;;5.40;4.90;;;13.90;99.90;;;;;;6195122;23;20255;-64
2021/05/02 12:24:14;;;;;;;5.40;4.90;;;13.80;99.90;;;;;;6187275;23;20536;-62
2021/05/02 12:26:50;;;;;;;5.57;5.07;;;13.80;99.90;;;;;;6166578;23;20951;-63
2021/05/02 12:29:24;;;;;;;4.87;4.47;;;13.80;99.90;;;;;;6191452;23;21239;-64
2021/05/02 12:31:52;;;;;;;4.37;4.07;;;13.70;99.90;;;;;;6169513;23;20688;-62
2021/05/02 12:34:20;;;;;;;4.00;3.80;;;13.60;99.90;;;;;;6164696;23;20629;-63
2021/05/02 12:36:48;;;;;;;4.40;4.00;;;13.70;99.90;;;;;;6190076;23;20579;-62
2021/05/02 12:39:14;;;;;;;3.77;3.47;;;13.80;99.90;;;;;;6192608;23;20992;-63
2021/05/02 12:41:41;;;;;;;3.33;3.13;;;13.90;99.90;;;;;;6192466;23;20582;-64
2021/05/02 12:44:18;;;;;;;3.73;3.50;;;14.00;99.90;;;;;;6195226;23;20602;-64
2021/05/02 12:46:51;;;;;;;4.03;3.73;;;14.10;99.90;;;;;;6199503;23;20599;-64
2021/05/02 12:49:21;;;;;;;4.50;3.90;;;14.10;99.90;;;;;;6173156;22;20587;-64
2021/05/02 12:51:59;;;;;;;5.40;4.90;;;14.20;99.90;;;;;;6201628;22;21036;-64